createdAt,value
2018-01-23T00:01:27.298Z,42.83
2018-01-23T00:03:55.376Z,43.05
2018-01-23T00:06:23.635Z,48.15
2018-01-23T00:08:52.505Z,40.28
2018-01-23T00:11:20.561Z,46.47
2018-01-23T00:13:48.667Z,51.92
2018-01-23T00:16:16.718Z,46.40
2018-01-23T00:18:44.785Z,48.15
2018-01-23T00:21:12.857Z,54.35
2018-01-23T00:23:40.926Z,51.78
2018-01-23T00:26:09.028Z,49.60
2018-01-23T00:28:37.095Z,42.03
2018-01-23T00:31:05.177Z,47.65
2018-01-23T00:33:34.010Z,47.92
2018-01-23T00:36:02.074Z,48.60
2018-01-23T00:38:30.138Z,53.80
2018-01-23T00:40:58.251Z,52.47
2018-01-23T00:43:26.308Z,45.60
2018-01-23T00:45:56.312Z,55.83
2018-01-23T00:48:24.380Z,48.95
2018-01-23T00:50:52.462Z,48.28
2018-01-23T00:53:20.526Z,48.67
2018-01-23T00:55:48.590Z,52.03
2018-01-23T00:58:16.661Z,56.63
2018-01-23T01:00:44.729Z,49.60
2018-01-23T01:03:12.801Z,54.05
2018-01-23T01:05:40.873Z,55.63
2018-01-23T01:08:08.946Z,44.15
2018-01-23T01:10:37.014Z,51.65
2018-01-23T01:13:05.097Z,54.67
2018-01-23T01:15:33.170Z,43.33
2018-01-23T01:18:01.240Z,48.58
2018-01-23T01:20:29.297Z,48.42
2018-01-23T01:22:57.369Z,52.40
2018-01-23T01:25:25.433Z,48.30
2018-01-23T01:27:53.500Z,43.78
2018-01-23T01:30:21.565Z,48.17
2018-01-23T01:32:49.642Z,49.80
2018-01-23T01:35:17.706Z,52.00
2018-01-23T01:37:45.756Z,53.08
2018-01-23T01:40:14.604Z,50.17
2018-01-23T01:42:42.658Z,48.47
2018-01-23T01:45:10.745Z,52.95
2018-01-23T01:47:38.821Z,56.72
2018-01-23T01:50:06.894Z,53.63
2018-01-23T01:52:34.962Z,52.47
2018-01-23T01:55:03.030Z,48.85
2018-01-23T01:57:31.103Z,50.30
2018-01-23T01:59:59.171Z,50.75
2018-01-23T02:02:27.242Z,54.55
2018-01-23T02:04:55.314Z,54.55
2018-01-23T02:07:23.380Z,51.83
2018-01-23T02:09:51.456Z,55.88
2018-01-23T02:12:19.524Z,59.20
2018-01-23T02:14:47.608Z,65.37
2018-01-23T02:17:15.662Z,58.58
2018-01-23T02:19:43.744Z,67.53
2018-01-23T02:22:11.802Z,58.65
2018-01-23T02:24:39.869Z,62.08
2018-01-23T02:27:07.941Z,57.05
2018-01-23T02:29:36.015Z,51.30
2018-01-23T02:32:04.089Z,59.85
2018-01-23T02:34:32.166Z,66.62
2018-01-23T02:37:00.229Z,57.35
2018-01-23T02:39:28.293Z,63.95
2018-01-23T02:41:56.388Z,62.15
2018-01-23T02:44:24.458Z,65.82
2018-01-23T02:46:52.529Z,53.35
2018-01-23T02:49:20.595Z,65.32
2018-01-23T02:51:48.666Z,59.05
2018-01-23T02:54:16.743Z,58.83
2018-01-23T02:56:44.813Z,62.80
2018-01-23T02:59:12.878Z,59.80
2018-01-23T03:01:40.958Z,69.70
2018-01-23T03:04:10.725Z,58.08
2018-01-23T03:06:38.793Z,64.93
2018-01-23T03:09:07.774Z,60.78
2018-01-23T03:11:35.848Z,70.20
2018-01-23T03:14:03.913Z,70.50
2018-01-23T03:16:31.983Z,59.50
2018-01-23T03:19:00.055Z,72.50
2018-01-23T03:21:28.164Z,68.05
2018-01-23T03:23:56.209Z,65.97
2018-01-23T03:26:24.274Z,72.20
2018-01-23T03:28:52.342Z,60.47
2018-01-23T03:31:20.418Z,65.25
2018-01-23T03:33:48.486Z,69.53
2018-01-23T03:36:16.558Z,61.75
2018-01-23T03:38:45.426Z,58.78
2018-01-23T03:41:13.503Z,73.20
2018-01-23T03:43:41.586Z,64.68
2018-01-23T03:46:09.658Z,60.17
2018-01-23T03:48:37.729Z,72.15
2018-01-23T03:51:05.800Z,64.80
2018-01-23T03:53:33.877Z,58.85
2018-01-23T03:56:01.949Z,74.35
2018-01-23T03:58:30.023Z,69.62
2018-01-23T04:00:58.093Z,69.30
2018-01-23T04:03:26.167Z,76.82
2018-01-23T04:05:54.246Z,82.50
2018-01-23T04:08:22.422Z,75.85
2018-01-23T04:10:50.494Z,67.28
2018-01-23T04:13:18.570Z,74.32
2018-01-23T04:15:46.642Z,73.12
2018-01-23T04:18:14.708Z,80.60
2018-01-23T04:20:42.790Z,67.97
2018-01-23T04:23:11.393Z,74.43
2018-01-23T04:25:40.230Z,90.47
2018-01-23T04:28:08.306Z,79.18
2018-01-23T04:30:36.376Z,78.55
2018-01-23T04:33:04.447Z,69.22
2018-01-23T04:35:32.522Z,73.32
2018-01-23T04:38:00.594Z,69.25
2018-01-23T04:40:28.663Z,80.40
2018-01-23T04:42:56.732Z,71.10
2018-01-23T04:45:24.804Z,84.00
2018-01-23T04:47:52.872Z,79.65
2018-01-23T04:50:20.977Z,78.00
2018-01-23T04:52:49.827Z,82.97
2018-01-23T04:55:17.885Z,82.65
2018-01-23T04:57:45.957Z,82.70
2018-01-23T05:00:14.061Z,85.18
2018-01-23T05:02:42.146Z,100.47
2018-01-23T05:05:10.982Z,81.18
2018-01-23T05:07:39.061Z,90.43
2018-01-23T05:10:08.042Z,93.40
2018-01-23T05:12:36.114Z,93.72
2018-01-23T05:15:04.181Z,96.10
2018-01-23T05:17:32.259Z,98.50
2018-01-23T05:20:00.334Z,82.35
2018-01-23T05:22:28.402Z,83.05
2018-01-23T05:24:56.470Z,90.78
2018-01-23T05:27:24.537Z,101.60
2018-01-23T05:29:52.670Z,99.20
2018-01-23T05:32:21.501Z,95.62
2018-01-23T05:34:49.577Z,105.75
2018-01-23T05:37:17.645Z,104.55
2018-01-23T05:39:45.717Z,123.43
2018-01-23T05:42:13.794Z,117.40
2018-01-23T05:44:41.858Z,109.90
2018-01-23T05:47:09.930Z,126.38
2018-01-23T05:49:38.008Z,111.40
2018-01-23T05:52:06.078Z,110.53
2018-01-23T05:54:34.160Z,114.88
2018-01-23T05:57:02.238Z,103.43
2018-01-23T05:59:30.319Z,134.30
2018-01-23T06:01:58.387Z,101.43
2018-01-23T06:04:26.462Z,119.15
2018-01-23T06:06:54.542Z,121.90
2018-01-23T06:09:23.377Z,141.05
2018-01-23T06:11:51.450Z,114.10
2018-01-23T06:14:19.514Z,137.52
2018-01-23T06:16:47.607Z,128.62
2018-01-23T06:19:15.683Z,129.45
2018-01-23T06:21:43.762Z,142.55
2018-01-23T06:24:11.853Z,107.90
2018-01-23T06:26:39.930Z,112.15
2018-01-23T06:29:08.765Z,112.53
2018-01-23T06:31:36.837Z,130.52
2018-01-23T06:34:04.910Z,133.60
2018-01-23T06:36:33.041Z,132.23
2018-01-23T06:39:01.072Z,129.85
2018-01-23T06:41:29.150Z,117.37
2018-01-23T06:43:57.218Z,117.87
2018-01-23T06:46:25.278Z,116.78
2018-01-23T06:48:53.351Z,125.07
2018-01-23T06:51:21.427Z,119.07
2018-01-23T06:53:49.493Z,106.40
2018-01-23T06:56:17.573Z,93.35
2018-01-23T06:58:45.695Z,93.10
2018-01-23T07:01:13.779Z,93.10
2018-01-23T07:03:41.858Z,85.93
2018-01-23T07:06:09.938Z,95.62
2018-01-23T07:08:38.005Z,94.05
2018-01-23T07:11:06.097Z,96.12
2018-01-23T07:13:34.153Z,92.32
2018-01-23T07:16:02.235Z,108.90
2018-01-23T07:18:30.307Z,107.50
2018-01-23T07:20:58.394Z,119.93
2018-01-23T07:23:27.250Z,124.10
2018-01-23T07:25:55.317Z,127.82
2018-01-23T07:28:23.414Z,138.35
2018-01-23T07:30:51.494Z,128.85
2018-01-23T07:33:20.350Z,146.85
2018-01-23T07:35:48.441Z,171.15
2018-01-23T07:38:16.514Z,157.18
2018-01-23T07:40:44.590Z,156.93
2018-01-23T07:43:12.666Z,131.40
2018-01-23T07:45:41.509Z,156.48
2018-01-23T07:48:09.593Z,150.55
2018-01-23T07:50:37.682Z,136.10
2018-01-23T07:53:05.755Z,155.48
2018-01-23T07:55:34.816Z,132.68
2018-01-23T07:58:04.834Z,122.95
2018-01-23T08:00:32.907Z,151.75
2018-01-23T08:03:00.978Z,173.87
2018-01-23T08:05:29.062Z,140.30
2018-01-23T08:07:57.130Z,152.93
2018-01-23T08:10:25.216Z,150.52
2018-01-23T08:12:53.295Z,138.37
2018-01-23T08:15:21.362Z,166.00
2018-01-23T08:17:49.434Z,128.52
2018-01-23T08:20:17.511Z,145.07
2018-01-23T08:22:45.579Z,144.73
2018-01-23T08:25:13.646Z,141.07
2018-01-23T08:27:41.723Z,126.45
2018-01-23T08:30:09.794Z,140.88
2018-01-23T08:32:38.625Z,135.25
2018-01-23T08:35:06.693Z,138.95
2018-01-23T08:37:34.774Z,124.57
2018-01-23T08:40:02.875Z,128.25
2018-01-23T08:42:31.053Z,115.80
2018-01-23T08:44:59.139Z,122.22
2018-01-23T08:47:27.977Z,113.05
2018-01-23T08:49:56.054Z,111.85
2018-01-23T08:52:24.139Z,179.95
2018-01-23T08:54:52.228Z,188.05
2018-01-23T08:57:20.305Z,141.25
2018-01-23T08:59:48.373Z,197.82
2018-01-23T09:02:16.445Z,118.13
2018-01-23T09:04:44.515Z,129.93
2018-01-23T09:07:13.354Z,92.97
2018-01-23T09:09:41.423Z,98.68
2018-01-23T09:12:09.502Z,125.78
2018-01-23T09:14:37.577Z,106.53
2018-01-23T09:17:05.645Z,134.02
2018-01-23T09:19:33.716Z,99.57
2018-01-23T09:22:01.799Z,100.62
2018-01-23T09:24:29.859Z,90.60
2018-01-23T09:26:57.948Z,78.05
2018-01-23T09:29:26.079Z,73.45
2018-01-23T09:31:54.142Z,77.82
2018-01-23T09:34:22.209Z,90.28
2018-01-23T09:36:50.285Z,81.12
2018-01-23T09:39:18.360Z,78.90
2018-01-23T09:41:46.414Z,66.60
2018-01-23T09:44:15.252Z,71.03
2018-01-23T09:46:43.323Z,63.53
2018-01-23T09:49:11.391Z,56.67
2018-01-23T09:51:39.462Z,80.38
2018-01-23T09:54:07.542Z,65.62
2018-01-23T09:56:35.614Z,67.57
2018-01-23T09:59:03.686Z,82.43
2018-01-23T10:01:31.759Z,79.72
2018-01-23T10:03:59.841Z,76.30
2018-01-23T10:06:27.910Z,65.60
2018-01-23T10:08:56.064Z,77.15
2018-01-23T10:11:24.135Z,93.55
2018-01-23T10:13:52.211Z,161.00
2018-01-23T10:16:20.279Z,68.72
2018-01-23T10:18:48.360Z,108.82
2018-01-23T10:21:16.430Z,66.40
2018-01-23T10:23:44.511Z,59.78
2018-01-23T10:26:12.586Z,60.65
2018-01-23T10:28:41.426Z,55.35
2018-01-23T10:31:09.491Z,67.12
2018-01-23T10:33:37.556Z,78.40
2018-01-23T10:36:05.630Z,63.30
2018-01-23T10:38:33.701Z,68.28
2018-01-23T10:41:01.775Z,53.58
2018-01-23T10:43:30.250Z,72.90
2018-01-23T10:45:58.317Z,89.55
2018-01-23T10:48:26.386Z,59.55
2018-01-23T10:50:54.461Z,62.17
2018-01-23T10:53:22.537Z,61.17
2018-01-23T10:55:50.606Z,58.90
2018-01-23T10:58:18.785Z,72.68
2018-01-23T11:00:52.476Z,88.68
2018-01-23T11:03:20.546Z,75.65
2018-01-23T11:05:48.614Z,121.72
2018-01-23T11:08:16.698Z,68.28
2018-01-23T11:10:44.783Z,64.12
2018-01-23T11:13:12.862Z,52.25
2018-01-23T11:15:40.933Z,54.58
2018-01-23T11:18:09.001Z,59.92
2018-01-23T11:20:37.895Z,65.53
2018-01-23T11:23:05.966Z,57.92
2018-01-23T11:25:34.034Z,57.13
2018-01-23T11:28:02.110Z,56.75
2018-01-23T11:30:30.173Z,65.82
2018-01-23T11:32:58.246Z,58.53
2018-01-23T11:35:26.314Z,54.88
2018-01-23T11:37:54.399Z,58.40
2018-01-23T11:40:22.457Z,58.87
2018-01-23T11:42:50.535Z,71.28
2018-01-23T11:45:18.634Z,64.05
2018-01-23T11:47:47.481Z,64.95
2018-01-23T11:50:15.551Z,63.00
2018-01-23T11:52:43.626Z,68.35
2018-01-23T11:55:11.715Z,62.40
2018-01-23T11:57:39.804Z,59.65
2018-01-23T12:00:08.641Z,65.05
2018-01-23T12:02:36.731Z,60.53
2018-01-23T12:05:04.811Z,55.25
2018-01-23T12:07:32.882Z,53.65
2018-01-23T12:10:00.998Z,62.72
2018-01-23T12:12:29.061Z,57.58
2018-01-23T12:14:57.202Z,62.38
2018-01-23T12:17:25.323Z,54.47
2018-01-23T12:19:53.410Z,55.42
2018-01-23T12:22:21.497Z,63.65
2018-01-23T12:24:49.576Z,68.85
2018-01-23T12:27:17.646Z,77.62
2018-01-23T12:29:45.730Z,76.15
2018-01-23T12:32:14.567Z,134.35
2018-01-23T12:34:42.655Z,67.30
2018-01-23T12:37:10.730Z,126.43
2018-01-23T12:39:38.877Z,58.40
2018-01-23T12:42:06.939Z,79.75
2018-01-23T12:44:35.022Z,64.43
2018-01-23T12:47:03.103Z,110.28
2018-01-23T12:49:31.184Z,65.45
2018-01-23T12:51:59.534Z,48.28
2018-01-23T12:54:27.610Z,61.78
2018-01-23T12:56:55.683Z,61.53
2018-01-23T12:59:23.752Z,61.08
2018-01-23T13:01:51.846Z,57.47
2018-01-23T13:04:19.943Z,56.42
2018-01-23T13:06:48.014Z,63.30
2018-01-23T13:09:16.092Z,68.47
2018-01-23T13:11:44.931Z,67.07
2018-01-23T13:14:13.000Z,53.75
2018-01-23T13:16:41.070Z,61.92
2018-01-23T13:19:09.141Z,61.22
2018-01-23T13:21:37.224Z,58.30
2018-01-23T13:24:05.290Z,57.40
2018-01-23T13:26:33.401Z,56.97
2018-01-23T13:29:02.241Z,58.63
2018-01-23T13:31:30.303Z,59.35
2018-01-23T13:33:58.374Z,50.05
2018-01-23T13:36:26.447Z,50.05
2018-01-23T13:38:54.530Z,52.95
2018-01-23T13:41:22.622Z,42.50
2018-01-23T13:43:50.701Z,48.00
2018-01-23T13:46:18.776Z,59.22
2018-01-23T13:48:46.853Z,47.08
2018-01-23T13:51:15.698Z,48.05
2018-01-23T13:53:43.776Z,52.83
2018-01-23T13:56:11.843Z,56.37
2018-01-23T13:58:39.920Z,47.42
2018-01-23T14:01:07.990Z,53.90
2018-01-23T14:03:36.122Z,70.22
2018-01-23T14:06:04.165Z,56.78
2018-01-23T14:08:33.005Z,56.58
2018-01-23T14:11:01.083Z,63.90
2018-01-23T14:13:29.158Z,57.38
2018-01-23T14:15:57.231Z,56.83
2018-01-23T14:18:25.297Z,61.60
2018-01-23T14:20:53.373Z,54.80
2018-01-23T14:23:21.445Z,59.35
2018-01-23T14:25:49.535Z,60.90
2018-01-23T14:28:17.615Z,62.70
2018-01-23T14:30:45.699Z,62.17
2018-01-23T14:33:14.562Z,59.70
2018-01-23T14:35:42.642Z,56.47
2018-01-23T14:38:10.711Z,65.87
2018-01-23T14:40:38.822Z,63.25
2018-01-23T14:43:06.894Z,61.35
2018-01-23T14:45:34.983Z,61.05
2018-01-23T14:48:03.059Z,73.68
2018-01-23T14:50:31.172Z,65.68
2018-01-23T14:52:59.252Z,59.72
2018-01-23T14:55:28.086Z,60.38
2018-01-23T14:57:56.170Z,67.32
2018-01-23T15:00:24.243Z,72.35
2018-01-23T15:02:52.314Z,60.80
2018-01-23T15:05:20.391Z,67.47
2018-01-23T15:07:48.461Z,67.75
2018-01-23T15:10:16.530Z,73.45
2018-01-23T15:12:44.600Z,60.47
2018-01-23T15:15:12.670Z,62.45
2018-01-23T15:17:40.756Z,59.55
2018-01-23T15:20:08.814Z,61.58
2018-01-23T15:22:36.910Z,53.80
2018-01-23T15:25:05.762Z,109.97
2018-01-23T15:27:33.845Z,76.45
2018-01-23T15:30:01.919Z,79.35
2018-01-23T15:32:29.993Z,81.72
2018-01-23T15:34:58.075Z,76.68
2018-01-23T15:37:26.154Z,63.65
2018-01-23T15:39:55.002Z,87.22
2018-01-23T15:42:23.103Z,68.65
2018-01-23T15:44:51.165Z,75.53
2018-01-23T15:47:20.177Z,76.93
2018-01-23T15:49:49.021Z,66.40
2018-01-23T15:52:17.100Z,74.12
2018-01-23T15:54:45.172Z,69.20
2018-01-23T15:57:13.252Z,79.05
2018-01-23T15:59:41.331Z,76.78
2018-01-23T16:02:09.398Z,61.42
2018-01-23T16:04:37.470Z,62.35
2018-01-23T16:07:05.539Z,67.50
2018-01-23T16:09:33.609Z,57.70
2018-01-23T16:12:01.691Z,60.90
2018-01-23T16:14:29.764Z,62.40
2018-01-23T16:16:57.850Z,69.22
2018-01-23T16:19:25.892Z,72.35
2018-01-23T16:21:53.958Z,68.82
2018-01-23T16:24:22.070Z,78.07
2018-01-23T16:26:50.137Z,68.57
2018-01-23T16:29:18.979Z,69.45
2018-01-23T16:31:47.059Z,78.30
2018-01-23T16:34:15.125Z,79.43
2018-01-23T16:36:43.207Z,72.95
2018-01-23T16:39:11.325Z,86.85
2018-01-23T16:41:39.345Z,86.05
2018-01-23T16:44:07.418Z,72.60
2018-01-23T16:46:35.494Z,70.15
2018-01-23T16:49:03.924Z,73.22
2018-01-23T16:51:31.998Z,75.62
2018-01-23T16:54:00.071Z,87.57
2018-01-23T16:56:28.152Z,79.68
2018-01-23T16:58:56.230Z,104.57
2018-01-23T17:01:24.309Z,171.52
2018-01-23T17:03:52.378Z,86.70
2018-01-23T17:06:20.459Z,132.85
2018-01-23T17:08:48.595Z,94.72
2018-01-23T17:11:16.662Z,90.62
2018-01-23T17:13:44.730Z,82.12
2018-01-23T17:16:12.814Z,86.40
2018-01-23T17:18:40.879Z,89.28
2018-01-23T17:21:08.954Z,75.15
2018-01-23T17:23:37.019Z,72.05
2018-01-23T17:26:05.100Z,65.40
2018-01-23T17:28:33.165Z,75.93
2018-01-23T17:31:01.232Z,81.03
2018-01-23T17:33:29.297Z,54.38
2018-01-23T17:35:57.364Z,70.78
2018-01-23T17:38:25.445Z,84.62
2018-01-23T17:40:53.501Z,65.18
2018-01-23T17:43:21.579Z,88.90
2018-01-23T17:45:49.667Z,79.37
2018-01-23T17:48:17.725Z,71.35
2018-01-23T17:50:45.790Z,89.40
2018-01-23T17:53:13.870Z,70.30
2018-01-23T17:55:41.950Z,78.37
2018-01-23T17:58:10.017Z,74.03
2018-01-23T18:00:38.115Z,78.20
2018-01-23T18:03:06.202Z,92.22
2018-01-23T18:05:34.270Z,89.82
2018-01-23T18:08:02.340Z,77.80
2018-01-23T18:10:30.418Z,73.68
2018-01-23T18:13:07.270Z,89.60
2018-01-23T18:15:35.335Z,68.87
2018-01-23T18:18:03.401Z,70.78
2018-01-23T18:20:31.476Z,70.37
2018-01-23T18:22:59.551Z,78.68
2018-01-23T18:25:27.626Z,89.87
2018-01-23T18:27:55.689Z,61.97
2018-01-23T18:30:23.771Z,72.95
2018-01-23T18:32:51.840Z,55.83
2018-01-23T18:35:19.939Z,77.07
2018-01-23T18:37:48.026Z,72.32
2018-01-23T18:40:16.101Z,63.58
2018-01-23T18:42:44.165Z,62.47
2018-01-23T18:45:12.229Z,63.80
2018-01-23T18:47:40.311Z,76.32
2018-01-23T18:50:08.785Z,74.55
2018-01-23T18:52:36.847Z,72.00
2018-01-23T18:55:04.933Z,80.20
2018-01-23T18:57:33.000Z,82.62
2018-01-23T19:00:01.094Z,69.25
2018-01-23T19:02:29.160Z,67.57
2018-01-23T19:04:57.234Z,64.43
2018-01-23T19:07:25.311Z,61.22
2018-01-23T19:09:53.390Z,55.38
2018-01-23T19:12:21.517Z,74.87
2018-01-23T19:14:49.555Z,64.75
2018-01-23T19:17:17.639Z,54.33
2018-01-23T19:19:46.487Z,59.05
2018-01-23T19:22:14.568Z,50.10
2018-01-23T19:24:42.639Z,55.78
2018-01-23T19:27:10.730Z,61.10
2018-01-23T19:29:38.797Z,65.43
2018-01-23T19:32:06.879Z,59.05
2018-01-23T19:34:35.725Z,48.08
2018-01-23T19:37:03.823Z,50.05
2018-01-23T19:39:31.928Z,68.68
2018-01-23T19:42:00.770Z,56.00
2018-01-23T19:44:28.843Z,53.35
2018-01-23T19:46:56.926Z,48.70
2018-01-23T19:49:25.015Z,44.50
2018-01-23T19:51:53.854Z,44.40
2018-01-23T19:54:21.930Z,46.20
2018-01-23T19:56:50.005Z,46.55
2018-01-23T19:59:18.079Z,43.30
2018-01-23T20:01:46.151Z,39.78
2018-01-23T20:04:14.235Z,43.55
2018-01-23T20:06:42.315Z,40.10
2018-01-23T20:09:11.172Z,44.80
2018-01-23T20:11:39.254Z,42.38
2018-01-23T20:14:07.334Z,52.67
2018-01-23T20:16:35.403Z,40.40
2018-01-23T20:19:03.482Z,45.70
2018-01-23T20:21:31.563Z,49.53
2018-01-23T20:24:00.401Z,74.18
2018-01-23T20:26:28.465Z,75.78
2018-01-23T20:28:56.541Z,35.20
2018-01-23T20:31:24.615Z,44.53
2018-01-23T20:33:52.689Z,41.25
2018-01-23T20:36:20.767Z,51.85
2018-01-23T20:38:48.860Z,40.45
2018-01-23T20:41:16.934Z,53.03
2018-01-23T20:43:45.015Z,48.13
2018-01-23T20:46:13.850Z,43.80
2018-01-23T20:48:41.917Z,31.35
2018-01-23T20:51:09.986Z,39.38
2018-01-23T20:53:38.057Z,39.55
2018-01-23T20:56:06.139Z,45.90
2018-01-23T20:58:34.238Z,31.55
2018-01-23T21:01:02.319Z,58.30
2018-01-23T21:03:30.397Z,32.95
2018-01-23T21:05:59.247Z,37.75
2018-01-23T21:08:27.326Z,34.88
2018-01-23T21:10:55.399Z,39.28
2018-01-23T21:13:23.483Z,35.05
2018-01-23T21:15:51.582Z,33.83
2018-01-23T21:18:20.414Z,41.13
2018-01-23T21:20:48.525Z,26.48
2018-01-23T21:23:16.607Z,38.95
2018-01-23T21:25:45.459Z,33.67
2018-01-23T21:28:13.525Z,27.50
2018-01-23T21:30:41.610Z,24.23
2018-01-23T21:33:09.685Z,38.83
2018-01-23T21:35:37.749Z,32.60
2018-01-23T21:38:05.840Z,21.92
2018-01-23T21:40:33.914Z,28.05
2018-01-23T21:43:02.751Z,26.33
2018-01-23T21:45:30.821Z,32.10
2018-01-23T21:47:58.913Z,29.67
2018-01-23T21:50:26.989Z,25.75
2018-01-23T21:52:55.062Z,25.75
2018-01-23T21:55:23.129Z,27.52
2018-01-23T21:57:51.214Z,25.25
2018-01-23T22:00:19.283Z,25.00
2018-01-23T22:02:47.374Z,23.25
2018-01-23T22:05:16.217Z,39.38
2018-01-23T22:07:44.292Z,23.50
2018-01-23T22:10:12.372Z,25.37
2018-01-23T22:12:40.434Z,24.30
2018-01-23T22:15:08.515Z,32.30
2018-01-23T22:17:36.585Z,27.00
2018-01-23T22:20:04.664Z,29.67
2018-01-23T22:22:32.751Z,25.70
2018-01-23T22:25:01.599Z,36.47
2018-01-23T22:27:29.696Z,33.70
2018-01-23T22:29:57.762Z,26.27
2018-01-23T22:32:25.847Z,31.17
2018-01-23T22:34:53.919Z,34.10
2018-01-23T22:37:22.763Z,25.30
2018-01-23T22:39:50.859Z,21.87
2018-01-23T22:42:18.936Z,29.15
2018-01-23T22:44:47.030Z,28.45
2018-01-23T22:47:15.872Z,28.70
2018-01-23T22:49:43.958Z,22.58
2018-01-23T22:52:12.042Z,26.67
2018-01-23T22:54:40.124Z,25.88
2018-01-23T22:57:08.959Z,21.90
2018-01-23T22:59:37.055Z,27.08
2018-01-23T23:02:05.130Z,18.90
2018-01-23T23:04:33.208Z,22.90
2018-01-23T23:07:01.278Z,21.77
2018-01-23T23:09:29.352Z,24.70
2018-01-23T23:11:57.427Z,28.08
2018-01-23T23:14:25.525Z,18.10
2018-01-23T23:16:54.362Z,18.00
2018-01-23T23:19:22.453Z,24.48
2018-01-23T23:21:50.538Z,21.60
2018-01-23T23:24:19.380Z,16.23
2018-01-23T23:26:47.448Z,19.98
2018-01-23T23:29:15.532Z,16.05
2018-01-23T23:31:43.627Z,25.35
2018-01-23T23:34:11.707Z,21.62
2018-01-23T23:36:40.551Z,20.40
2018-01-23T23:39:08.632Z,19.23
2018-01-23T23:41:36.701Z,17.67
2018-01-23T23:44:04.772Z,15.15
2018-01-23T23:46:32.949Z,31.52
2018-01-23T23:49:01.027Z,21.95
2018-01-23T23:51:29.099Z,17.85
2018-01-23T23:53:57.166Z,20.90
2018-01-23T23:56:25.245Z,43.55
2018-01-23T23:58:53.315Z,23.20
